createdAt,value
2022-09-16T00:01:12.719Z,4.67
2022-09-16T00:03:41.601Z,7.17
2022-09-16T00:06:19.159Z,4.80
2022-09-16T00:08:47.435Z,4.40
2022-09-16T00:11:15.972Z,3.97
2022-09-16T00:13:43.987Z,1.83
2022-09-16T00:16:15.375Z,3.63
2022-09-16T00:18:43.384Z,3.97
2022-09-16T00:21:12.317Z,7.90
2022-09-16T00:23:41.861Z,4.37
2022-09-16T00:26:10.062Z,5.23
2022-09-16T00:28:38.164Z,3.03
2022-09-16T00:31:06.578Z,4.37
2022-09-16T00:33:34.748Z,5.67
2022-09-16T00:36:07.771Z,4.23
2022-09-16T00:38:36.012Z,5.13
2022-09-16T00:41:06.312Z,5.50
2022-09-16T00:43:53.653Z,4.37
2022-09-16T00:46:27.951Z,4.53
2022-09-16T00:48:56.186Z,5.47
2022-09-16T00:51:25.449Z,7.93
2022-09-16T00:53:57.464Z,3.17
2022-09-16T00:56:31.144Z,8.83
2022-09-16T00:59:05.736Z,2.63
2022-09-16T01:01:34.364Z,3.70
2022-09-16T01:04:06.824Z,2.67
2022-09-16T01:06:39.560Z,6.07
2022-09-16T01:09:08.093Z,6.73
2022-09-16T01:11:37.512Z,4.07
2022-09-16T01:14:24.329Z,5.70
2022-09-16T01:16:59.566Z,4.23
2022-09-16T01:19:49.718Z,5.10
2022-09-16T01:22:30.226Z,3.73
2022-09-16T01:25:08.950Z,6.93
2022-09-16T01:27:53.396Z,3.33
2022-09-16T01:30:53.520Z,4.83
2022-09-16T01:33:31.637Z,2.67
2022-09-16T01:36:17.242Z,5.47
2022-09-16T01:38:58.074Z,4.00
2022-09-16T01:41:32.778Z,2.63
2022-09-16T01:44:05.518Z,3.50
2022-09-16T01:46:43.321Z,4.83
2022-09-16T01:49:21.468Z,1.80
2022-09-16T01:51:55.285Z,5.47
2022-09-16T01:54:27.374Z,6.87
2022-09-16T01:57:01.677Z,3.57
2022-09-16T01:59:38.552Z,4.10
2022-09-16T02:02:15.673Z,5.67
2022-09-16T02:04:48.414Z,2.97
2022-09-16T02:07:20.702Z,5.07
2022-09-16T02:09:53.804Z,3.13
2022-09-16T02:12:29.162Z,2.73
2022-09-16T02:15:03.856Z,2.80
2022-09-16T02:17:37.902Z,3.07
2022-09-16T02:20:11.202Z,4.20
2022-09-16T02:22:44.505Z,4.27
2022-09-16T02:25:16.517Z,6.40
2022-09-16T02:27:47.392Z,4.07
2022-09-16T02:30:17.897Z,6.43
2022-09-16T02:32:49.750Z,3.50
2022-09-16T02:35:20.177Z,3.07
2022-09-16T02:37:52.287Z,4.00
2022-09-16T02:40:25.597Z,4.70
2022-09-16T02:42:54.253Z,3.30
2022-09-16T02:45:27.038Z,9.30
2022-09-16T02:48:03.266Z,3.90
2022-09-16T02:50:39.764Z,2.77
2022-09-16T02:53:20.234Z,4.23
2022-09-16T02:55:54.655Z,6.10
2022-09-16T02:58:22.981Z,6.53
2022-09-16T03:00:55.583Z,6.80
2022-09-16T03:03:24.945Z,6.20
2022-09-16T03:06:15.492Z,5.67
2022-09-16T03:08:45.431Z,3.03
2022-09-16T03:11:33.720Z,4.40
2022-09-16T03:14:15.959Z,5.90
2022-09-16T03:16:55.434Z,6.77
2022-09-16T03:19:30.518Z,2.30
2022-09-16T03:22:05.922Z,4.37
2022-09-16T03:24:44.292Z,5.60
2022-09-16T03:27:17.314Z,3.17
2022-09-16T03:29:50.620Z,4.77
2022-09-16T03:32:22.334Z,2.97
2022-09-16T03:34:56.277Z,2.43
2022-09-16T03:37:26.167Z,5.03
2022-09-16T03:39:58.410Z,7.27
2022-09-16T03:42:26.933Z,5.77
2022-09-16T03:44:54.908Z,6.87
2022-09-16T03:47:22.821Z,5.20
2022-09-16T03:49:52.182Z,4.20
2022-09-16T03:52:20.060Z,5.37
2022-09-16T03:54:47.958Z,5.37
2022-09-16T03:57:15.882Z,6.07
2022-09-16T03:59:43.808Z,4.80
2022-09-16T04:02:11.760Z,6.53
2022-09-16T04:04:39.699Z,4.77
2022-09-16T04:07:09.031Z,6.00
2022-09-16T04:09:38.136Z,4.73
2022-09-16T04:12:07.760Z,3.87
2022-09-16T04:14:36.553Z,4.03
2022-09-16T04:17:05.151Z,3.83
2022-09-16T04:19:33.122Z,8.23
2022-09-16T04:22:01.080Z,4.23
2022-09-16T04:24:30.925Z,6.40
2022-09-16T04:26:58.867Z,8.50
2022-09-16T04:29:27.807Z,4.40
2022-09-16T04:31:56.080Z,4.97
2022-09-16T04:34:24.122Z,4.30
2022-09-16T04:36:52.094Z,8.23
2022-09-16T04:39:20.283Z,4.77
2022-09-16T04:41:49.685Z,6.73
2022-09-16T04:44:17.606Z,5.77
2022-09-16T04:46:45.516Z,5.33
2022-09-16T04:49:13.793Z,2.73
2022-09-16T04:51:41.722Z,6.10
2022-09-16T04:54:09.667Z,2.17
2022-09-16T04:56:37.585Z,3.67
2022-09-16T04:59:07.273Z,4.87
2022-09-16T05:01:38.219Z,3.47
2022-09-16T05:04:08.447Z,5.00
2022-09-16T05:06:38.486Z,5.80
2022-09-16T05:09:07.006Z,4.10
2022-09-16T05:11:38.850Z,5.87
2022-09-16T05:14:11.365Z,5.87
2022-09-16T05:16:39.687Z,5.87
2022-09-16T05:19:07.967Z,10.77
2022-09-16T05:21:37.885Z,5.83
2022-09-16T05:24:08.930Z,5.97
2022-09-16T05:26:38.940Z,4.53
2022-09-16T05:29:09.877Z,6.23
2022-09-16T05:31:40.040Z,5.80
2022-09-16T05:34:12.710Z,5.80
2022-09-16T05:36:43.314Z,3.93
2022-09-16T05:39:28.495Z,6.40
2022-09-16T05:41:58.697Z,6.50
2022-09-16T05:44:29.931Z,7.13
2022-09-16T05:46:58.700Z,6.87
2022-09-16T05:49:29.014Z,12.23
2022-09-16T05:51:57.005Z,7.77
2022-09-16T05:54:25.422Z,5.33
2022-09-16T05:56:54.050Z,10.07
2022-09-16T05:59:30.111Z,8.33
2022-09-16T06:01:59.895Z,8.47
2022-09-16T06:04:28.180Z,6.20
2022-09-16T06:06:56.162Z,8.00
2022-09-16T06:09:26.040Z,7.83
2022-09-16T06:12:00.947Z,8.93
2022-09-16T06:14:30.430Z,6.77
2022-09-16T06:17:00.127Z,7.23
2022-09-16T06:19:28.177Z,7.37
2022-09-16T06:21:56.197Z,3.87
2022-09-16T06:24:24.442Z,10.07
2022-09-16T06:26:53.112Z,7.63
2022-09-16T06:29:21.204Z,6.43
2022-09-16T06:31:55.438Z,4.47
2022-09-16T06:34:24.981Z,6.23
2022-09-16T06:36:52.879Z,5.00
2022-09-16T06:39:22.524Z,6.80
2022-09-16T06:41:50.525Z,8.27
2022-09-16T06:44:18.592Z,9.17
2022-09-16T06:46:46.796Z,11.17
2022-09-16T06:49:14.871Z,7.53
2022-09-16T06:51:44.237Z,9.43
2022-09-16T06:54:12.993Z,6.63
2022-09-16T06:56:41.565Z,6.00
2022-09-16T06:59:19.440Z,7.67
2022-09-16T07:01:47.685Z,13.53
2022-09-16T07:04:16.494Z,8.63
2022-09-16T07:07:08.687Z,8.07
2022-09-16T07:09:37.125Z,12.57
2022-09-16T07:12:05.595Z,10.43
2022-09-16T07:14:33.890Z,9.50
2022-09-16T07:17:13.372Z,10.93
2022-09-16T07:19:44.958Z,13.00
2022-09-16T07:22:25.304Z,8.47
2022-09-16T07:25:07.296Z,11.27
2022-09-16T07:27:38.705Z,7.97
2022-09-16T07:30:10.039Z,12.83
2022-09-16T07:32:42.659Z,10.97
2022-09-16T07:35:10.886Z,8.57
2022-09-16T07:37:42.795Z,7.57
2022-09-16T07:40:13.587Z,9.03
2022-09-16T07:42:46.420Z,8.60
2022-09-16T07:45:28.216Z,5.73
2022-09-16T07:47:59.609Z,7.13
2022-09-16T07:50:57.043Z,5.67
2022-09-16T09:32:49.486Z,2.63
2022-09-16T09:35:32.280Z,3.23
2022-09-16T09:38:30.543Z,3.00
2022-09-16T09:41:04.344Z,3.60
2022-09-16T09:43:36.789Z,5.97
2022-09-16T09:46:09.798Z,3.73
2022-09-16T09:48:42.108Z,4.43
2022-09-16T09:51:28.833Z,4.73
2022-09-16T09:54:02.271Z,3.07
2022-09-16T09:56:35.418Z,5.70
2022-09-16T09:59:17.470Z,3.23
2022-09-16T10:01:45.916Z,4.53
2022-09-16T10:04:15.962Z,5.43
2022-09-16T10:06:46.996Z,4.23
2022-09-16T10:09:16.873Z,4.13
2022-09-16T10:11:51.349Z,3.27
2022-09-16T10:14:27.823Z,3.27
2022-09-16T10:16:56.374Z,4.20
2022-09-16T10:19:26.436Z,6.37
2022-09-16T10:21:57.861Z,5.53
2022-09-16T10:24:32.727Z,4.80
2022-09-16T10:27:02.471Z,7.17
2022-09-16T10:29:31.023Z,3.23
2022-09-16T10:32:07.295Z,5.57
2022-09-16T10:34:40.154Z,4.30
2022-09-16T10:37:19.043Z,2.20
2022-09-16T10:39:53.377Z,3.97
2022-09-16T10:42:23.608Z,3.00
2022-09-16T10:44:53.150Z,2.30
2022-09-16T10:47:24.666Z,5.57
2022-09-16T10:49:56.390Z,2.43
2022-09-16T10:52:28.301Z,5.60
2022-09-16T10:54:56.968Z,5.33
2022-09-16T10:57:29.528Z,3.67
2022-09-16T11:00:08.723Z,3.13
2022-09-16T11:03:11.787Z,4.27
2022-09-16T11:05:51.769Z,3.90
2022-09-16T11:08:35.142Z,5.77
2022-09-16T11:11:11.835Z,5.30
2022-09-16T11:13:49.633Z,5.57
2022-09-16T11:16:29.897Z,7.23
2022-09-16T11:19:06.672Z,3.97
2022-09-16T11:21:50.212Z,6.53
2022-09-16T11:24:45.780Z,6.40
2022-09-16T11:27:22.675Z,6.17
2022-09-16T11:30:02.830Z,4.03
2022-09-16T11:32:42.408Z,4.13
2022-09-16T11:35:31.061Z,2.03
2022-09-16T11:38:07.072Z,4.73
2022-09-16T11:40:48.077Z,5.80
2022-09-16T11:43:50.983Z,5.07
2022-09-16T11:46:24.494Z,5.20
2022-09-16T11:49:08.510Z,4.10
2022-09-16T11:51:51.728Z,1.67
2022-09-16T11:54:38.657Z,2.17
2022-09-16T11:57:14.593Z,3.03
2022-09-16T11:59:50.966Z,2.87
2022-09-16T12:02:26.267Z,1.67
2022-09-16T12:05:00.034Z,1.60
2022-09-16T12:07:34.027Z,5.30
2022-09-16T12:10:08.032Z,3.10
2022-09-16T12:12:41.080Z,3.20
2022-09-16T12:15:19.088Z,2.43
2022-09-16T12:17:56.015Z,2.97
2022-09-16T12:20:30.718Z,2.70
2022-09-16T12:23:06.477Z,2.47
2022-09-16T12:25:45.482Z,4.23
2022-09-16T12:28:21.533Z,2.93
2022-09-16T12:30:58.692Z,3.53
2022-09-16T12:33:33.166Z,3.00
2022-09-16T12:36:05.370Z,2.30
2022-09-16T12:38:33.856Z,2.07
2022-09-16T12:41:19.735Z,3.70
2022-09-16T12:44:33.584Z,3.73
2022-09-16T12:47:38.018Z,2.60
2022-09-16T12:50:41.212Z,5.53
2022-09-16T12:53:53.103Z,3.07
2022-09-16T12:56:35.320Z,2.93
2022-09-16T12:59:25.014Z,3.57
2022-09-16T13:01:59.949Z,3.43
2022-09-16T13:04:34.134Z,7.00
2022-09-16T13:07:02.491Z,7.07
2022-09-16T13:09:36.302Z,2.97
2022-09-16T13:12:35.298Z,3.57
2022-09-16T13:14:59.699Z,2.10
2022-09-16T13:17:31.305Z,3.20
2022-09-16T13:20:07.848Z,4.70
2022-09-16T13:22:45.661Z,4.53
2022-09-16T13:25:23.603Z,2.43
2022-09-16T13:27:59.447Z,4.87
2022-09-16T13:30:37.189Z,6.00
2022-09-16T13:33:28.008Z,5.60
2022-09-16T13:36:30.732Z,7.67
2022-09-16T13:39:01.950Z,6.60
2022-09-16T13:41:34.017Z,4.03
2022-09-16T13:44:03.342Z,4.30
2022-09-16T13:46:35.907Z,4.33
2022-09-16T13:49:25.012Z,3.27
2022-09-16T13:51:53.906Z,3.90
2022-09-16T13:54:28.000Z,4.03
2022-09-16T13:57:21.607Z,4.20
2022-09-16T14:00:12.832Z,2.70
2022-09-16T14:02:56.989Z,2.40
2022-09-16T14:05:37.938Z,4.53
2022-09-16T14:08:15.489Z,4.27
2022-09-16T14:11:00.628Z,3.10
2022-09-16T14:13:41.333Z,1.50
2022-09-16T14:16:16.917Z,2.80
2022-09-16T14:18:55.537Z,1.60
2022-09-16T14:21:25.626Z,2.00
2022-09-16T14:26:23.999Z,3.47
2022-09-16T14:29:03.178Z,3.60
2022-09-16T14:31:34.538Z,2.50
2022-09-16T14:34:09.663Z,3.50
2022-09-16T14:36:40.471Z,2.03
2022-09-16T14:39:13.967Z,4.97
2022-09-16T14:41:45.763Z,2.03
2022-09-16T14:44:23.082Z,2.80
2022-09-16T14:47:04.693Z,3.40
2022-09-16T14:49:39.484Z,2.67
2022-09-16T14:52:19.670Z,3.47
2022-09-16T14:54:48.499Z,5.03
2022-09-16T14:57:22.727Z,6.20
2022-09-16T14:59:53.137Z,3.70
2022-09-16T15:02:25.616Z,4.43
2022-09-16T15:04:58.894Z,6.10
2022-09-16T15:07:34.229Z,3.03
2022-09-16T15:10:07.903Z,5.00
2022-09-16T15:12:40.513Z,5.30
2022-09-16T15:15:18.162Z,3.37
2022-09-16T15:17:56.469Z,4.17
2022-09-16T15:20:32.374Z,5.70
2022-09-16T15:23:01.536Z,2.17
2022-09-16T15:25:34.266Z,4.10
2022-09-16T15:28:07.538Z,5.77
2022-09-16T15:30:36.235Z,1.40
2022-09-16T15:33:04.355Z,5.13
2022-09-16T15:35:35.598Z,4.20
2022-09-16T15:38:13.046Z,3.37
2022-09-16T15:40:41.188Z,3.07
2022-09-16T15:43:18.406Z,3.77
2022-09-16T15:45:58.412Z,4.03
2022-09-16T15:48:30.825Z,3.97
2022-09-16T15:51:06.356Z,4.27
2022-09-16T15:53:44.314Z,8.40
2022-09-16T15:56:24.308Z,4.83
2022-09-16T15:58:55.981Z,4.50
2022-09-16T16:01:40.164Z,6.87
2022-09-16T16:04:10.471Z,7.03
2022-09-16T16:06:54.116Z,3.63
2022-09-16T16:09:41.389Z,4.93
2022-09-16T16:12:12.044Z,4.83
2022-09-16T16:14:41.562Z,7.57
2022-09-16T16:17:13.865Z,7.70
2022-09-16T16:19:43.894Z,9.20
2022-09-16T16:22:13.578Z,7.20
2022-09-16T16:24:43.352Z,8.23
2022-09-16T16:27:11.704Z,7.97
2022-09-16T16:29:39.712Z,9.07
2022-09-16T16:32:10.450Z,2.67
2022-09-16T16:34:40.064Z,5.23
2022-09-16T16:37:08.674Z,5.93
2022-09-16T16:39:38.389Z,6.43
2022-09-16T16:42:07.031Z,4.27
2022-09-16T16:44:39.543Z,3.83
2022-09-16T16:47:08.538Z,7.13
2022-09-16T16:49:36.932Z,4.97
2022-09-16T16:52:06.363Z,6.47
2022-09-16T16:54:34.762Z,6.50
2022-09-16T16:57:04.777Z,7.93
2022-09-16T16:59:32.893Z,3.27
2022-09-16T17:02:01.031Z,4.53
2022-09-16T17:04:29.134Z,4.90
2022-09-16T17:07:21.435Z,6.20
2022-09-16T17:09:46.141Z,5.20
2022-09-16T17:12:15.747Z,3.93
2022-09-16T17:14:44.035Z,4.43
2022-09-16T17:17:12.215Z,5.40
2022-09-16T17:19:40.424Z,3.57
2022-09-16T17:22:08.602Z,5.77
2022-09-16T17:24:36.738Z,5.60
2022-09-16T17:27:05.335Z,6.63
2022-09-16T17:29:34.951Z,7.33
2022-09-16T17:32:03.553Z,5.20
2022-09-16T17:34:32.636Z,4.00
2022-09-16T17:37:00.606Z,5.80
2022-09-16T17:39:28.633Z,4.83
2022-09-16T17:41:57.472Z,6.03
2022-09-16T17:44:25.770Z,3.93
2022-09-16T17:46:55.285Z,4.43
2022-09-16T17:49:24.737Z,6.13
2022-09-16T17:51:54.296Z,6.53
2022-09-16T17:54:22.668Z,4.67
2022-09-16T17:56:50.825Z,4.40
2022-09-16T17:59:19.885Z,8.70
2022-09-16T18:01:49.264Z,5.43
2022-09-16T18:04:19.139Z,5.77
2022-09-16T18:06:48.146Z,5.17
2022-09-16T18:09:17.467Z,5.63
2022-09-16T18:11:46.342Z,5.20
2022-09-16T18:14:15.938Z,6.53
2022-09-16T18:16:47.794Z,5.97
2022-09-16T18:19:15.864Z,4.93
2022-09-16T18:21:45.128Z,5.00
2022-09-16T18:24:13.703Z,8.43
2022-09-16T18:26:42.258Z,6.87
2022-09-16T18:29:12.285Z,4.07
2022-09-16T18:31:41.962Z,6.10
2022-09-16T18:34:10.439Z,7.37
2022-09-16T18:36:39.298Z,8.70
2022-09-16T18:39:13.120Z,7.17
2022-09-16T18:41:42.459Z,9.07
2022-09-16T18:44:14.424Z,5.23
2022-09-16T18:46:42.933Z,6.97
2022-09-16T18:49:13.656Z,7.20
2022-09-16T18:51:48.543Z,6.77
2022-09-16T18:54:24.820Z,8.37
2022-09-16T18:56:55.577Z,10.27
2022-09-16T18:59:26.862Z,10.83
2022-09-16T19:01:56.943Z,11.27
2022-09-16T19:04:27.655Z,9.40
2022-09-16T19:06:59.115Z,9.43
2022-09-16T19:09:29.089Z,11.83
2022-09-16T19:11:57.070Z,6.03
2022-09-16T19:14:27.415Z,7.87
2022-09-16T19:16:56.288Z,6.20
2022-09-16T19:19:24.268Z,6.87
2022-09-16T19:21:52.429Z,6.10
2022-09-16T19:24:22.239Z,6.33
2022-09-16T19:26:55.524Z,6.07
2022-09-16T19:29:24.935Z,5.00
2022-09-16T19:31:54.036Z,5.67
2022-09-16T19:34:23.129Z,5.03
2022-09-16T19:36:51.750Z,5.70
2022-09-16T19:39:21.444Z,6.33
2022-09-16T19:41:50.999Z,4.20
2022-09-16T19:44:22.649Z,5.67
2022-09-16T19:46:50.824Z,4.90
2022-09-16T19:49:21.200Z,4.70
2022-09-16T19:51:50.272Z,5.67
2022-09-16T19:54:19.476Z,5.23
2022-09-16T19:56:50.618Z,7.10
2022-09-16T19:59:22.092Z,6.43
2022-09-16T20:01:50.523Z,7.77
2022-09-16T20:04:20.909Z,6.13
2022-09-16T20:06:49.813Z,4.97
2022-09-16T20:09:18.181Z,4.93
2022-09-16T20:11:48.186Z,7.23
2022-09-16T20:14:18.920Z,4.10
2022-09-16T20:16:49.881Z,5.03
2022-09-16T20:19:20.279Z,5.07
2022-09-16T20:21:48.601Z,6.10
2022-09-16T20:24:18.415Z,4.20
2022-09-16T20:26:46.749Z,6.60
2022-09-16T20:29:15.071Z,9.53
2022-09-16T20:31:43.102Z,5.27
2022-09-16T20:34:13.785Z,7.13
2022-09-16T20:36:42.200Z,5.77
2022-09-16T20:39:11.276Z,7.90
2022-09-16T20:41:41.012Z,3.97
2022-09-16T20:44:12.989Z,6.63
2022-09-16T20:46:41.264Z,4.93
2022-09-16T20:49:11.191Z,8.00
2022-09-16T20:51:40.896Z,6.80
2022-09-16T20:54:11.212Z,7.50
2022-09-16T20:56:40.917Z,5.10
2022-09-16T20:59:10.271Z,9.43
2022-09-16T21:01:39.870Z,6.37
2022-09-16T21:04:10.814Z,5.90
2022-09-16T21:06:40.660Z,5.80
2022-09-16T21:09:10.312Z,5.20
2022-09-16T21:11:40.902Z,5.87
2022-09-16T21:14:09.102Z,10.23
2022-09-16T21:16:38.924Z,5.43
2022-09-16T21:19:10.323Z,6.50
2022-09-16T21:21:42.151Z,6.97
2022-09-16T21:24:10.445Z,5.67
2022-09-16T21:26:41.455Z,4.17
2022-09-16T21:29:11.625Z,5.87
2022-09-16T21:31:41.702Z,7.40
2022-09-16T21:34:13.696Z,5.57
2022-09-16T21:36:44.885Z,7.87
2022-09-16T21:39:14.094Z,5.50
2022-09-16T21:41:42.617Z,8.33
2022-09-16T21:44:10.805Z,6.93
2022-09-16T21:46:41.682Z,5.47
2022-09-16T21:49:19.245Z,10.47
2022-09-16T21:51:49.245Z,9.63
2022-09-16T21:54:24.110Z,9.57
2022-09-16T21:56:52.931Z,9.10
2022-09-16T21:59:21.171Z,14.13
2022-09-16T22:01:50.262Z,11.43
2022-09-16T22:04:22.704Z,17.07
2022-09-16T22:06:55.155Z,15.70
2022-09-16T22:09:24.009Z,20.37
2022-09-16T22:11:52.161Z,18.30
2022-09-16T22:14:20.568Z,12.27
2022-09-16T22:16:48.741Z,11.27
2022-09-16T22:19:18.954Z,15.83
2022-09-16T22:21:48.829Z,12.07
2022-09-16T22:24:20.549Z,12.37
2022-09-16T22:26:49.322Z,19.13
2022-09-16T22:29:17.473Z,18.13
2022-09-16T22:31:45.685Z,16.73
2022-09-16T22:34:13.848Z,14.47
2022-09-16T22:36:42.566Z,12.97
2022-09-16T22:39:13.485Z,12.50
2022-09-16T22:41:43.618Z,13.67
2022-09-16T22:44:11.637Z,8.40
2022-09-16T22:46:42.657Z,8.00
2022-09-16T22:49:11.616Z,8.53
2022-09-16T22:51:39.745Z,7.50
2022-09-16T22:54:08.734Z,6.47
2022-09-16T22:56:37.081Z,7.10
2022-09-16T22:59:08.478Z,7.47
2022-09-16T23:01:39.839Z,8.60
2022-09-16T23:04:09.771Z,10.40
2022-09-16T23:06:39.025Z,4.23
2022-09-16T23:09:09.232Z,7.40
2022-09-16T23:11:37.576Z,7.47
2022-09-16T23:14:08.695Z,6.07
2022-09-16T23:16:38.488Z,10.23
2022-09-16T23:19:08.683Z,11.40
2022-09-16T23:21:37.767Z,8.97
2022-09-16T23:24:08.028Z,7.00
2022-09-16T23:26:39.164Z,6.37
2022-09-16T23:29:11.252Z,6.53
2022-09-16T23:31:41.367Z,8.20
2022-09-16T23:34:12.515Z,4.70
2022-09-16T23:36:41.532Z,7.40
2022-09-16T23:39:10.247Z,5.37
2022-09-16T23:41:38.446Z,9.80
2022-09-16T23:44:08.136Z,8.03
2022-09-16T23:46:36.355Z,8.27
2022-09-16T23:49:04.753Z,8.23
2022-09-16T23:51:32.995Z,7.17
2022-09-16T23:54:01.376Z,7.50
2022-09-16T23:56:29.669Z,6.17
2022-09-16T23:59:00.515Z,11.27
